Time;durP1;ratioP1;P1;durP2;ratioP2;P2;SDS_P1;SDS_P2;PMS_P1;PMS_P2;Temp;Humidity;BMP_temperature;BMP_pressure;BME280_temperature;BME280_humidity;BME280_pressure;Samples;Min_cycle;Max_cycle;Signal;HPM_P1;HPM_P2
2023/05/31 00:01:08;;;;;;;5.07;4.00;;;13.70;99.90;;;;;;5012011;28;20186;-74
2023/05/31 00:03:35;;;;;;;9.50;4.20;;;13.70;99.90;;;;;;5012143;28;20161;-73
2023/05/31 00:06:00;;;;;;;12.93;3.43;;;13.70;99.90;;;;;;5012106;28;20487;-73
2023/05/31 00:08:26;;;;;;;3.93;3.20;;;13.60;99.90;;;;;;5011518;28;20430;-73
2023/05/31 00:10:51;;;;;;;7.33;4.47;;;13.60;99.90;;;;;;5011959;28;20177;-73
2023/05/31 00:13:17;;;;;;;6.87;3.63;;;13.60;99.90;;;;;;5010574;28;20188;-73
2023/05/31 00:15:42;;;;;;;4.67;3.63;;;13.50;99.90;;;;;;5011980;28;20638;-73
2023/05/31 00:18:08;;;;;;;6.33;3.30;;;13.50;99.90;;;;;;5011561;28;20661;-74
2023/05/31 00:20:33;;;;;;;4.33;3.40;;;13.40;99.90;;;;;;5011793;28;20179;-73
2023/05/31 00:22:59;;;;;;;6.83;3.77;;;13.40;99.90;;;;;;5012057;28;20177;-74
2023/05/31 00:25:25;;;;;;;5.80;4.43;;;13.40;99.90;;;;;;5011587;28;20843;-73
2023/05/31 00:27:51;;;;;;;5.90;3.33;;;13.30;99.90;;;;;;5011504;28;20423;-73
2023/05/31 00:30:17;;;;;;;5.23;3.63;;;13.30;99.90;;;;;;5011907;28;20303;-73
2023/05/31 00:32:42;;;;;;;5.23;3.40;;;13.20;99.90;;;;;;5011715;28;20537;-73
2023/05/31 00:35:08;;;;;;;6.07;4.60;;;13.20;99.90;;;;;;5012475;28;20161;-74
2023/05/31 00:37:37;;;;;;;7.30;4.43;;;13.10;99.90;;;;;;5015244;28;20181;-74
2023/05/31 00:40:05;;;;;;;7.73;4.77;;;13.10;99.90;;;;;;5015539;28;20161;-74
2023/05/31 00:42:31;;;;;;;8.30;5.70;;;13.10;99.90;;;;;;5015494;28;20415;-73
2023/05/31 00:44:57;;;;;;;5.17;3.07;;;13.00;99.90;;;;;;5015359;28;20418;-73
2023/05/31 00:47:23;;;;;;;6.20;4.43;;;13.00;99.90;;;;;;5015038;28;20223;-73
2023/05/31 00:49:49;;;;;;;9.97;4.90;;;13.00;99.90;;;;;;5015189;28;20195;-74
2023/05/31 00:52:14;;;;;;;7.57;5.03;;;13.00;99.90;;;;;;5015243;28;20454;-73
2023/05/31 00:54:40;;;;;;;6.27;4.37;;;12.90;99.90;;;;;;5015299;28;20218;-73
2023/05/31 00:57:06;;;;;;;6.60;4.73;;;12.90;99.90;;;;;;4997306;28;20200;-73
2023/05/31 00:59:32;;;;;;;8.77;4.30;;;12.90;99.90;;;;;;5015134;28;20184;-73
2023/05/31 01:01:59;;;;;;;5.90;4.70;;;12.80;99.90;;;;;;5015240;28;20413;-73
2023/05/31 01:04:25;;;;;;;6.17;3.80;;;12.80;99.90;;;;;;5015044;28;20172;-75
2023/05/31 01:06:51;;;;;;;6.80;3.83;;;12.80;99.90;;;;;;5014687;28;20410;-75
2023/05/31 01:09:17;;;;;;;8.13;5.47;;;12.80;99.90;;;;;;5014868;28;20431;-73
2023/05/31 01:11:53;;;;;;;10.30;6.30;;;12.70;99.90;;;;;;5014774;28;20453;-75
2023/05/31 01:14:43;;;;;;;7.93;5.83;;;12.70;99.90;;;;;;5014853;28;20423;-73
2023/05/31 01:17:13;;;;;;;9.03;5.07;;;12.60;99.90;;;;;;5014406;28;20478;-73
2023/05/31 01:19:47;;;;;;;6.27;4.40;;;12.60;99.90;;;;;;5014982;28;20434;-73
2023/05/31 01:22:27;;;;;;;16.30;5.23;;;12.60;99.90;;;;;;5014624;28;20460;-76
2023/05/31 01:25:11;;;;;;;5.90;3.70;;;12.60;99.90;;;;;;5014202;28;20407;-75
2023/05/31 01:27:38;;;;;;;7.67;4.63;;;12.50;99.90;;;;;;5012811;28;20466;-77
2023/05/31 01:30:05;;;;;;;5.00;4.37;;;12.50;99.90;;;;;;5013849;28;20415;-74
2023/05/31 01:32:32;;;;;;;6.40;4.40;;;12.50;99.90;;;;;;4996397;28;20454;-74
2023/05/31 01:34:57;;;;;;;7.50;4.40;;;12.40;99.90;;;;;;5021613;28;20418;-73
2023/05/31 01:37:23;;;;;;;5.80;4.13;;;12.40;99.90;;;;;;5015160;28;20466;-73
2023/05/31 01:39:50;;;;;;;11.83;4.87;;;12.40;99.90;;;;;;5028295;28;20172;-73
2023/05/31 01:42:17;;;;;;;7.60;4.77;;;12.40;99.90;;;;;;5014474;28;20149;-74
2023/05/31 01:44:43;;;;;;;6.60;4.10;;;12.40;99.90;;;;;;5014506;28;20411;-73
2023/05/31 01:47:10;;;;;;;11.07;5.63;;;12.30;99.90;;;;;;4995438;28;20920;-73
2023/05/31 01:49:39;;;;;;;6.37;5.13;;;12.30;99.90;;;;;;5014293;28;20410;-73
2023/05/31 01:52:08;;;;;;;6.00;4.43;;;12.30;99.90;;;;;;5014050;28;20482;-73
2023/05/31 01:54:33;;;;;;;8.17;5.60;;;12.30;99.90;;;;;;5014233;28;20411;-73
2023/05/31 01:57:02;;;;;;;7.50;4.27;;;12.30;99.90;;;;;;5028645;28;20407;-74
2023/05/31 01:59:30;;;;;;;7.03;4.40;;;12.20;99.90;;;;;;5033683;28;20184;-73
2023/05/31 02:01:56;;;;;;;7.60;5.90;;;12.20;99.90;;;;;;5033707;28;20402;-74
2023/05/31 02:04:21;;;;;;;10.87;5.00;;;12.20;99.90;;;;;;5033737;28;20406;-74
2023/05/31 02:06:47;;;;;;;7.77;5.33;;;12.20;99.90;;;;;;5033471;28;20417;-74
2023/05/31 02:09:12;;;;;;;7.70;5.77;;;12.20;99.90;;;;;;5033528;28;20245;-74
2023/05/31 02:11:38;;;;;;;9.77;5.00;;;12.20;99.90;;;;;;5033566;28;20723;-74
2023/05/31 02:14:03;;;;;;;7.67;5.10;;;12.10;99.90;;;;;;5033405;28;20215;-74
2023/05/31 02:16:29;;;;;;;7.93;4.87;;;12.10;99.90;;;;;;5033103;28;20278;-74
2023/05/31 02:18:56;;;;;;;8.67;5.23;;;12.10;99.90;;;;;;5032947;28;20524;-75
2023/05/31 02:21:21;;;;;;;7.97;5.40;;;12.10;99.90;;;;;;4999538;28;20164;-74
2023/05/31 02:23:47;;;;;;;7.83;5.17;;;12.10;99.90;;;;;;5013512;28;20414;-74
2023/05/31 02:26:12;;;;;;;8.63;5.40;;;12.10;99.90;;;;;;5012352;28;20164;-76
2023/05/31 02:28:38;;;;;;;7.30;5.00;;;12.10;99.90;;;;;;5013220;28;20188;-74
2023/05/31 02:31:03;;;;;;;7.00;4.67;;;12.10;99.90;;;;;;5013387;28;20180;-74
2023/05/31 02:33:30;;;;;;;9.90;5.20;;;12.00;99.90;;;;;;5013416;28;20222;-75
2023/05/31 02:35:59;;;;;;;8.57;5.40;;;12.00;99.90;;;;;;5013056;28;20173;-74
2023/05/31 02:38:25;;;;;;;10.47;5.83;;;12.00;99.90;;;;;;5011257;28;20530;-74
2023/05/31 02:40:50;;;;;;;7.07;4.83;;;12.00;99.90;;;;;;5023894;28;20406;-74
2023/05/31 02:43:16;;;;;;;8.80;4.60;;;12.00;99.90;;;;;;5033215;28;20401;-74
2023/05/31 02:45:42;;;;;;;6.87;4.57;;;11.90;99.90;;;;;;5023569;28;20263;-74
2023/05/31 02:48:07;;;;;;;7.60;4.70;;;11.90;99.90;;;;;;5012892;28;20192;-74
2023/05/31 02:50:33;;;;;;;10.83;4.90;;;11.90;99.90;;;;;;4995546;28;20676;-77
2023/05/31 02:53:04;;;;;;;7.83;5.30;;;11.90;99.90;;;;;;5012957;28;20196;-74
2023/05/31 02:55:30;;;;;;;10.87;6.30;;;11.90;99.90;;;;;;5013123;28;20149;-76
2023/05/31 02:57:55;;;;;;;9.13;6.07;;;11.80;99.90;;;;;;5012023;28;20493;-75
2023/05/31 03:00:21;;;;;;;7.00;5.40;;;11.80;99.90;;;;;;5018569;28;20410;-74
2023/05/31 03:02:47;;;;;;;6.60;5.30;;;11.80;99.90;;;;;;5032684;28;20264;-74
2023/05/31 03:05:12;;;;;;;9.87;5.70;;;11.80;99.90;;;;;;5032575;28;20258;-74
2023/05/31 03:07:38;;;;;;;9.77;5.43;;;11.80;99.90;;;;;;5032290;28;20313;-75
2023/05/31 03:10:04;;;;;;;9.77;6.30;;;11.80;99.90;;;;;;5029617;28;20172;-76
2023/05/31 03:12:30;;;;;;;5.70;4.23;;;11.80;99.90;;;;;;5012471;28;20203;-74
2023/05/31 03:14:56;;;;;;;11.93;5.33;;;11.70;99.90;;;;;;5012658;28;20383;-74
2023/05/31 03:17:22;;;;;;;7.73;4.90;;;11.70;99.90;;;;;;5011912;28;20783;-77
2023/05/31 03:19:47;;;;;;;8.23;5.37;;;11.70;99.90;;;;;;5012586;28;20168;-76
2023/05/31 03:22:13;;;;;;;6.93;4.20;;;11.70;99.90;;;;;;5012608;28;20172;-74
2023/05/31 03:24:40;;;;;;;7.87;5.00;;;11.70;99.90;;;;;;5012674;28;20184;-74
2023/05/31 03:27:06;;;;;;;5.60;4.20;;;11.70;99.90;;;;;;5012228;28;20582;-74
2023/05/31 03:29:31;;;;;;;7.27;5.30;;;11.70;99.90;;;;;;5012478;28;20431;-75
2023/05/31 03:31:57;;;;;;;9.33;5.33;;;11.70;99.90;;;;;;5012409;28;20450;-75
2023/05/31 03:34:22;;;;;;;6.53;5.60;;;11.70;99.90;;;;;;5012379;28;20173;-76
2023/05/31 03:36:48;;;;;;;8.60;5.47;;;11.70;99.90;;;;;;5027565;28;20273;-74
2023/05/31 03:39:14;;;;;;;6.43;4.50;;;11.70;99.90;;;;;;5031655;28;20183;-74
2023/05/31 03:41:39;;;;;;;6.77;4.50;;;11.70;99.90;;;;;;5017665;28;20184;-74
2023/05/31 03:44:04;;;;;;;9.20;6.20;;;11.70;99.90;;;;;;5012262;28;20180;-76
2023/05/31 03:46:30;;;;;;;5.80;5.07;;;11.70;99.90;;;;;;4994728;28;20176;-74
2023/05/31 03:48:55;;;;;;;5.73;5.23;;;11.80;99.90;;;;;;5011929;28;20192;-75
2023/05/31 03:51:21;;;;;;;5.77;5.17;;;11.80;99.90;;;;;;5012128;28;20254;-74
2023/05/31 03:53:47;;;;;;;7.20;4.47;;;11.80;99.90;;;;;;5012165;28;20266;-75
2023/05/31 03:56:12;;;;;;;6.40;4.70;;;11.80;99.90;;;;;;5011991;28;20521;-74
2023/05/31 03:58:38;;;;;;;7.30;5.30;;;11.80;99.90;;;;;;5011560;28;20188;-74
2023/05/31 04:01:04;;;;;;;7.60;5.73;;;11.80;99.90;;;;;;5020228;28;20167;-74
2023/05/31 04:03:29;;;;;;;8.73;4.60;;;11.90;99.90;;;;;;5031895;28;20647;-74
2023/05/31 04:05:55;;;;;;;8.00;5.63;;;11.90;99.90;;;;;;5031655;28;20418;-73
2023/05/31 04:08:20;;;;;;;8.40;5.53;;;11.90;99.90;;;;;;5031508;28;20191;-74
2023/05/31 04:10:46;;;;;;;8.67;6.30;;;12.00;99.90;;;;;;5015534;28;20171;-74
2023/05/31 04:13:11;;;;;;;8.30;5.50;;;12.00;99.90;;;;;;5035571;28;20669;-75
2023/05/31 04:15:37;;;;;;;7.90;4.93;;;12.10;99.90;;;;;;5035619;28;20172;-75
2023/05/31 04:18:03;;;;;;;8.30;5.83;;;12.10;99.90;;;;;;5034844;28;20188;-74
2023/05/31 04:20:28;;;;;;;8.23;5.03;;;12.20;99.90;;;;;;5035725;28;20167;-74
2023/05/31 04:22:54;;;;;;;12.27;5.00;;;12.20;99.90;;;;;;5035708;28;20412;-74
2023/05/31 04:25:20;;;;;;;8.33;6.07;;;12.30;99.90;;;;;;5035647;28;20172;-77
2023/05/31 04:27:46;;;;;;;10.57;5.20;;;12.40;99.90;;;;;;5035249;28;20187;-74
2023/05/31 04:30:12;;;;;;;10.00;5.30;;;12.40;99.90;;;;;;5035405;28;20402;-76
2023/05/31 04:32:38;;;;;;;6.13;4.40;;;12.50;99.90;;;;;;5035331;28;20472;-74
2023/05/31 04:35:05;;;;;;;9.30;5.77;;;12.60;99.90;;;;;;5035280;28;20227;-74
2023/05/31 04:37:31;;;;;;;14.17;5.00;;;12.70;99.90;;;;;;5016209;28;20180;-74
2023/05/31 04:39:57;;;;;;;6.40;5.27;;;12.70;99.90;;;;;;4997901;28;20418;-75
2023/05/31 04:42:24;;;;;;;6.90;4.67;;;12.80;99.90;;;;;;5015473;28;20169;-74
2023/05/31 04:44:51;;;;;;;8.17;5.53;;;12.90;99.90;;;;;;4997967;28;20414;-74
2023/05/31 04:47:18;;;;;;;6.57;4.50;;;13.00;99.90;;;;;;5015132;28;20403;-75
2023/05/31 04:49:45;;;;;;;8.13;5.43;;;13.10;99.90;;;;;;5015354;28;20982;-74
2023/05/31 04:52:11;;;;;;;8.50;5.80;;;13.20;99.90;;;;;;5029867;28;20954;-74
2023/05/31 04:54:36;;;;;;;9.30;5.33;;;13.20;99.90;;;;;;5035108;28;20409;-75
2023/05/31 04:57:02;;;;;;;6.83;6.03;;;13.30;99.90;;;;;;5034315;28;20563;-74
2023/05/31 04:59:28;;;;;;;10.30;5.70;;;13.40;99.90;;;;;;5034830;28;20179;-74
2023/05/31 05:01:53;;;;;;;10.37;5.40;;;13.50;99.90;;;;;;5034929;28;20175;-75
2023/05/31 05:04:19;;;;;;;8.43;5.10;;;13.60;99.90;;;;;;5034908;28;20163;-74
2023/05/31 05:06:44;;;;;;;6.43;4.63;;;13.70;99.90;;;;;;5034629;28;20171;-74
2023/05/31 05:09:10;;;;;;;5.90;4.73;;;13.80;99.90;;;;;;5034437;28;20727;-74
2023/05/31 05:11:35;;;;;;;8.80;4.70;;;13.90;99.90;;;;;;5025916;28;20192;-74
2023/05/31 05:14:01;;;;;;;6.73;4.97;;;14.00;99.90;;;;;;5014854;28;20184;-75
2023/05/31 05:16:27;;;;;;;9.70;4.93;;;14.10;99.90;;;;;;5014645;28;20183;-77
2023/05/31 05:18:52;;;;;;;5.93;4.90;;;14.20;99.90;;;;;;5014319;28;20821;-74
2023/05/31 05:21:18;;;;;;;10.83;5.83;;;14.40;99.90;;;;;;5014744;28;20176;-74
2023/05/31 05:23:44;;;;;;;8.17;5.80;;;14.50;99.90;;;;;;5014754;28;20669;-74
2023/05/31 05:26:10;;;;;;;9.70;5.53;;;14.70;99.90;;;;;;5014789;28;20319;-75
2023/05/31 05:28:35;;;;;;;5.43;4.40;;;14.90;99.90;;;;;;4996867;28;20892;-75
2023/05/31 05:31:03;;;;;;;4.80;3.80;;;15.10;99.90;;;;;;5014563;28;20171;-73
2023/05/31 05:33:29;;;;;;;5.53;4.03;;;15.40;99.90;;;;;;5014708;28;20172;-74
2023/05/31 05:35:54;;;;;;;5.80;4.40;;;15.70;99.90;;;;;;5016023;28;20403;-74
2023/05/31 05:38:20;;;;;;;6.30;5.20;;;15.90;99.90;;;;;;5033749;28;20189;-75
2023/05/31 05:40:46;;;;;;;6.53;4.70;;;16.00;99.90;;;;;;5034495;28;20655;-74
2023/05/31 05:43:11;;;;;;;8.17;5.60;;;16.20;99.90;;;;;;5034495;28;20402;-73
2023/05/31 05:45:37;;;;;;;6.63;4.37;;;16.60;99.90;;;;;;5016691;28;20784;-74
2023/05/31 05:48:03;;;;;;;5.20;4.50;;;17.20;99.90;;;;;;5034068;28;20564;-73
2023/05/31 05:50:29;;;;;;;5.60;4.17;;;17.70;99.90;;;;;;5034130;28;20417;-74
2023/05/31 05:52:54;;;;;;;7.97;4.97;;;18.00;99.90;;;;;;5016743;28;20557;-74
2023/05/31 05:55:20;;;;;;;6.80;4.60;;;18.30;99.90;;;;;;5014296;28;20164;-76
2023/05/31 05:57:46;;;;;;;5.57;4.80;;;18.50;99.90;;;;;;5029150;28;20193;-77
2023/05/31 06:00:14;;;;;;;7.27;4.43;;;19.00;99.90;;;;;;5033940;28;20195;-75
2023/05/31 06:02:40;;;;;;;9.70;4.73;;;19.70;99.90;;;;;;5033712;28;20277;-74
2023/05/31 06:05:06;;;;;;;5.20;3.77;;;20.70;99.90;;;;;;5033840;28;20420;-74
2023/05/31 06:07:32;;;;;;;5.00;4.50;;;21.70;99.90;;;;;;5033391;28;20423;-74
2023/05/31 06:09:57;;;;;;;7.63;3.83;;;22.70;99.90;;;;;;5033606;28;20408;-75
2023/05/31 06:12:23;;;;;;;4.90;4.20;;;23.60;99.90;;;;;;5033158;28;20196;-73
2023/05/31 06:14:48;;;;;;;4.87;3.87;;;24.50;99.90;;;;;;5033709;28;20152;-76
2023/05/31 06:17:15;;;;;;;5.90;4.50;;;25.40;99.90;;;;;;5022277;28;20175;-73
2023/05/31 06:19:40;;;;;;;6.23;3.97;;;26.30;97.80;;;;;;5013651;28;20164;-73
2023/05/31 06:22:06;;;;;;;4.47;3.97;;;27.20;91.10;;;;;;5013829;28;20486;-73
2023/05/31 06:24:31;;;;;;;4.50;3.00;;;28.10;81.90;;;;;;5013700;28;20168;-74
2023/05/31 06:26:57;;;;;;;3.70;3.40;;;28.90;73.60;;;;;;5013245;28;20177;-74
2023/05/31 06:29:23;;;;;;;4.60;3.03;;;29.70;66.20;;;;;;5013434;28;20196;-74
2023/05/31 06:31:48;;;;;;;3.87;3.50;;;30.50;59.70;;;;;;5019402;28;20285;-74
2023/05/31 06:34:14;;;;;;;3.50;3.20;;;31.10;56.30;;;;;;5032622;28;20701;-76
2023/05/31 06:36:41;;;;;;;6.13;3.03;;;31.60;53.00;;;;;;5032591;28;20168;-76
2023/05/31 06:39:06;;;;;;;3.30;3.00;;;32.10;50.70;;;;;;5032701;28;20195;-76
2023/05/31 06:41:34;;;;;;;5.03;3.03;;;32.70;49.00;;;;;;5032903;28;20410;-76
2023/05/31 06:44:00;;;;;;;4.07;2.70;;;33.30;46.80;;;;;;5033004;28;20528;-76
2023/05/31 06:46:26;;;;;;;4.40;3.87;;;33.80;44.40;;;;;;5032817;28;20885;-76
2023/05/31 06:48:51;;;;;;;5.63;3.27;;;34.30;43.00;;;;;;5032773;28;20517;-75
2023/05/31 06:51:19;;;;;;;3.47;3.17;;;34.80;41.50;;;;;;5032626;28;20668;-76
2023/05/31 06:53:44;;;;;;;5.23;3.80;;;35.30;40.50;;;;;;5032933;28;20159;-76
2023/05/31 06:56:10;;;;;;;4.50;3.70;;;35.80;39.00;;;;;;5032851;28;20753;-70
2023/05/31 06:58:36;;;;;;;8.33;3.80;;;36.10;37.30;;;;;;5031197;28;20257;-73
2023/05/31 07:01:01;;;;;;;4.20;3.57;;;36.50;36.90;;;;;;5032562;28;20187;-73
2023/05/31 07:03:27;;;;;;;4.80;3.93;;;36.90;36.50;;;;;;5014600;28;20184;-73
2023/05/31 07:05:52;;;;;;;3.33;3.03;;;37.30;35.30;;;;;;5012723;28;20168;-72
2023/05/31 07:08:18;;;;;;;5.40;3.57;;;37.50;34.50;;;;;;5012423;28;20211;-73
2023/05/31 07:10:45;;;;;;;4.00;3.60;;;37.90;34.50;;;;;;5012633;28;20203;-73
2023/05/31 07:13:10;;;;;;;3.90;3.53;;;38.30;33.90;;;;;;5012513;28;20207;-72
2023/05/31 07:15:36;;;;;;;3.73;3.30;;;38.70;32.90;;;;;;5012554;28;20819;-73
2023/05/31 07:18:02;;;;;;;3.37;3.07;;;39.10;32.30;;;;;;5011915;28;20196;-73
2023/05/31 07:20:27;;;;;;;3.23;2.90;;;39.70;31.20;;;;;;5012593;28;20183;-73
2023/05/31 07:22:53;;;;;;;4.00;3.20;;;40.30;30.70;;;;;;5012676;28;20184;-73
2023/05/31 07:25:18;;;;;;;3.53;3.27;;;40.90;30.30;;;;;;5012531;28;20179;-72
2023/05/31 07:27:44;;;;;;;2.90;2.67;;;41.50;29.40;;;;;;5012219;28;20196;-74
2023/05/31 07:30:10;;;;;;;3.47;3.10;;;42.20;29.20;;;;;;5012461;28;20177;-73
2023/05/31 07:32:35;;;;;;;4.90;3.00;;;42.80;28.40;;;;;;5012416;28;20207;-73
2023/05/31 07:35:02;;;;;;;3.77;3.47;;;43.40;27.50;;;;;;5012504;28;20164;-73
2023/05/31 07:37:28;;;;;;;3.77;3.37;;;44.00;27.40;;;;;;5011542;28;20707;-73
2023/05/31 07:39:53;;;;;;;5.00;3.57;;;44.70;26.80;;;;;;5012287;28;20390;-73
2023/05/31 07:42:19;;;;;;;3.80;3.40;;;45.30;25.80;;;;;;5012232;28;20187;-73
2023/05/31 07:44:45;;;;;;;3.83;3.27;;;45.90;25.50;;;;;;5011395;28;20176;-73
2023/05/31 07:47:10;;;;;;;7.50;3.67;;;46.50;24.90;;;;;;5011970;28;20411;-72
2023/05/31 07:49:36;;;;;;;3.00;2.80;;;47.00;24.40;;;;;;5012128;28;20164;-74
2023/05/31 07:52:02;;;;;;;3.10;2.90;;;47.60;24.20;;;;;;5012282;28;20168;-74
2023/05/31 07:54:27;;;;;;;3.60;3.33;;;48.20;23.90;;;;;;5012206;28;20164;-74
2023/05/31 07:56:53;;;;;;;4.80;3.30;;;48.80;23.50;;;;;;5011735;28;20173;-74
2023/05/31 07:59:19;;;;;;;3.43;3.13;;;49.30;22.80;;;;;;4994339;28;20200;-74
2023/05/31 08:01:46;;;;;;;3.30;2.90;;;49.80;22.20;;;;;;5011942;28;20196;-74
2023/05/31 08:04:12;;;;;;;2.97;2.77;;;50.30;22.20;;;;;;5012159;28;20407;-75
2023/05/31 08:06:38;;;;;;;3.50;3.27;;;50.80;21.70;;;;;;4994583;28;20414;-75
2023/05/31 08:09:07;;;;;;;3.17;2.97;;;51.20;21.10;;;;;;5012020;28;20409;-74
2023/05/31 08:11:36;;;;;;;3.93;3.63;;;51.80;21.10;;;;;;5011776;28;20214;-74
2023/05/31 08:14:03;;;;;;;3.40;3.20;;;52.30;20.80;;;;;;5011959;28;20427;-74
2023/05/31 08:16:28;;;;;;;3.73;3.43;;;52.80;20.20;;;;;;5011722;28;20393;-74
2023/05/31 08:18:54;;;;;;;3.23;3.03;;;53.20;20.30;;;;;;5011522;28;20434;-74
2023/05/31 08:21:20;;;;;;;3.83;3.40;;;53.60;19.90;;;;;;5011889;28;20164;-74
2023/05/31 08:23:46;;;;;;;4.00;3.50;;;53.80;19.20;;;;;;5011840;28;20171;-74
2023/05/31 08:26:11;;;;;;;3.30;3.10;;;54.00;19.20;;;;;;5011921;28;20170;-74
2023/05/31 08:28:37;;;;;;;3.63;3.40;;;54.40;19.30;;;;;;5011527;28;20199;-75
2023/05/31 08:31:02;;;;;;;4.83;4.43;;;54.70;18.70;;;;;;5011897;28;20179;-73
2023/05/31 08:33:29;;;;;;;4.30;3.90;;;55.00;18.70;;;;;;5011775;28;20716;-73
2023/05/31 08:35:59;;;;;;;4.83;4.00;;;55.30;18.20;;;;;;5011572;28;20230;-73
2023/05/31 08:38:28;;;;;;;3.60;3.40;;;55.50;18.20;;;;;;5011112;28;20484;-74
2023/05/31 08:40:57;;;;;;;4.10;3.80;;;55.70;18.10;;;;;;5011833;28;21172;-75
2023/05/31 08:43:25;;;;;;;4.13;3.83;;;55.90;17.80;;;;;;5011762;28;20943;-75
2023/05/31 08:45:51;;;;;;;4.43;4.10;;;56.10;17.90;;;;;;5011682;28;20485;-75
2023/05/31 08:48:37;;;;;;;4.37;4.07;;;56.30;17.70;;;;;;5011369;28;20434;-74
2023/05/31 08:51:05;;;;;;;4.27;4.00;;;56.60;17.00;;;;;;5011691;28;20494;-73
2023/05/31 08:53:33;;;;;;;4.40;4.00;;;56.70;17.00;;;;;;5011566;28;20834;-75
2023/05/31 08:56:01;;;;;;;5.17;4.87;;;56.80;16.90;;;;;;5011314;28;20421;-76
2023/05/31 08:58:28;;;;;;;5.03;4.10;;;57.00;17.10;;;;;;5014767;28;21115;-76
2023/05/31 09:00:54;;;;;;;4.17;3.80;;;57.20;17.10;;;;;;5015285;28;20456;-74
2023/05/31 09:03:22;;;;;;;3.70;3.50;;;57.30;16.70;;;;;;5015014;28;20457;-71
2023/05/31 09:05:47;;;;;;;4.90;4.60;;;57.50;16.80;;;;;;5014978;28;20398;-71
2023/05/31 09:08:13;;;;;;;3.90;3.67;;;57.70;16.20;;;;;;5014735;28;20435;-72
2023/05/31 09:10:40;;;;;;;3.63;3.43;;;57.60;16.00;;;;;;5015187;28;20507;-73
2023/05/31 09:13:06;;;;;;;4.27;3.90;;;57.50;16.10;;;;;;5015123;28;20201;-71
2023/05/31 09:15:34;;;;;;;5.03;4.63;;;57.40;15.80;;;;;;5014972;28;20489;-71
2023/05/31 09:18:15;;;;;;;4.30;4.00;;;57.30;15.90;;;;;;5014026;28;20434;-74
2023/05/31 09:20:41;;;;;;;5.60;5.20;;;57.30;16.00;;;;;;5014877;28;20402;-73
2023/05/31 09:23:09;;;;;;;5.67;5.00;;;57.30;15.90;;;;;;5014710;28;20461;-73
2023/05/31 09:25:51;;;;;;;4.87;4.57;;;57.30;16.00;;;;;;5014746;28;20407;-73
2023/05/31 09:28:21;;;;;;;4.27;4.07;;;57.40;16.10;;;;;;5014512;28;20962;-73
2023/05/31 09:31:03;;;;;;;5.27;4.87;;;57.50;15.90;;;;;;5014713;28;20407;-72
2023/05/31 09:33:40;;;;;;;4.13;3.93;;;57.70;16.10;;;;;;5014664;28;20414;-72
2023/05/31 09:36:06;;;;;;;4.63;4.20;;;57.80;15.70;;;;;;5014451;28;20421;-71
2023/05/31 09:38:35;;;;;;;4.30;4.10;;;58.00;16.00;;;;;;5013750;28;20426;-71
2023/05/31 09:41:18;;;;;;;3.97;3.77;;;58.00;15.10;;;;;;5014575;28;20246;-73
2023/05/31 09:43:45;;;;;;;3.70;3.50;;;58.10;15.40;;;;;;5014443;28;20414;-73
2023/05/31 09:46:21;;;;;;;3.83;3.53;;;58.30;15.30;;;;;;5014477;28;20429;-73
2023/05/31 09:48:57;;;;;;;3.87;3.57;;;57.60;14.40;;;;;;4996458;28;20442;-73
2023/05/31 09:51:23;;;;;;;4.37;4.07;;;57.60;14.70;;;;;;5014272;28;20395;-74
2023/05/31 09:53:51;;;;;;;5.17;4.63;;;58.00;15.10;;;;;;5014207;28;20979;-75
2023/05/31 09:56:18;;;;;;;6.63;3.60;;;58.20;14.60;;;;;;5014028;28;20214;-75
2023/05/31 09:58:44;;;;;;;4.20;3.90;;;58.20;14.40;;;;;;5013499;28;20427;-76
2023/05/31 10:01:10;;;;;;;4.40;4.10;;;58.30;14.70;;;;;;5014143;28;20588;-75
2023/05/31 10:03:38;;;;;;;3.50;3.20;;;58.10;14.00;;;;;;4996394;28;20411;-76
2023/05/31 10:06:03;;;;;;;3.60;3.40;;;58.10;14.40;;;;;;5014546;28;20168;-77
2023/05/31 10:08:31;;;;;;;5.00;3.37;;;58.10;14.00;;;;;;5013359;28;20469;-77
2023/05/31 10:11:00;;;;;;;3.80;3.70;;;58.20;13.90;;;;;;5015324;28;20188;-78
2023/05/31 10:13:27;;;;;;;3.30;3.10;;;57.90;13.90;;;;;;5015119;28;20445;-77
2023/05/31 10:15:56;;;;;;;3.40;3.20;;;57.80;14.40;;;;;;5014548;28;20744;-77
2023/05/31 10:18:28;;;;;;;3.37;3.17;;;58.00;14.30;;;;;;5013631;28;20434;-75
2023/05/31 10:21:22;;;;;;;5.00;3.60;;;58.30;14.40;;;;;;5013766;28;20457;-77
2023/05/31 10:24:01;;;;;;;4.17;3.87;;;58.50;14.40;;;;;;5008741;28;20435;-76
2023/05/31 10:26:58;;;;;;;3.63;3.43;;;58.50;14.00;;;;;;5013855;28;20509;-76
2023/05/31 10:29:29;;;;;;;3.83;3.63;;;58.50;14.30;;;;;;5013894;28;20465;-77
2023/05/31 10:32:05;;;;;;;3.90;3.50;;;58.70;14.00;;;;;;5014560;28;20405;-77
2023/05/31 10:34:32;;;;;;;4.20;4.00;;;58.80;13.90;;;;;;5014031;28;20429;-78
2023/05/31 10:36:57;;;;;;;4.03;3.73;;;58.80;13.90;;;;;;5013440;28;20465;-75
2023/05/31 10:39:49;;;;;;;4.00;3.80;;;58.80;14.30;;;;;;5013294;28;20870;-76
2023/05/31 10:42:52;;;;;;;4.20;3.90;;;59.00;13.90;;;;;;5013352;28;20242;-77
2023/05/31 10:45:26;;;;;;;4.50;4.10;;;58.90;13.60;;;;;;5013262;28;20425;-76
2023/05/31 10:48:20;;;;;;;3.77;3.57;;;58.60;13.60;;;;;;5013009;28;20447;-77
2023/05/31 10:50:57;;;;;;;4.83;4.03;;;58.60;13.40;;;;;;5013190;28;20934;-79
2023/05/31 10:53:29;;;;;;;3.60;3.30;;;58.70;14.00;;;;;;5018008;28;20417;-77
2023/05/31 10:56:03;;;;;;;4.30;3.97;;;58.90;14.00;;;;;;5032813;28;20504;-79
2023/05/31 10:58:36;;;;;;;4.57;4.10;;;58.80;13.70;;;;;;5032495;28;20421;-77
2023/05/31 11:01:13;;;;;;;4.67;4.30;;;58.80;13.90;;;;;;5032856;28;20409;-75
2023/05/31 11:03:53;;;;;;;4.00;3.80;;;58.80;14.00;;;;;;5032408;28;20417;-76
2023/05/31 11:06:34;;;;;;;4.60;4.30;;;59.00;13.90;;;;;;5032719;28;20401;-75
2023/05/31 11:09:01;;;;;;;4.50;4.20;;;59.10;13.50;;;;;;5032143;28;20487;-77
2023/05/31 11:11:42;;;;;;;4.50;4.30;;;59.20;13.40;;;;;;5032722;28;20398;-77
2023/05/31 11:14:08;;;;;;;4.10;3.90;;;59.20;13.50;;;;;;5032430;28;20475;-77
2023/05/31 11:16:56;;;;;;;4.33;4.13;;;59.20;13.30;;;;;;5032511;28;20402;-75
2023/05/31 11:19:27;;;;;;;4.20;3.90;;;58.80;13.30;;;;;;5032037;28;20501;-77
2023/05/31 11:21:54;;;;;;;3.57;3.37;;;58.70;13.70;;;;;;5031188;28;20449;-76
2023/05/31 11:24:38;;;;;;;3.90;3.70;;;58.70;13.50;;;;;;5032562;28;20424;-77
2023/05/31 11:27:06;;;;;;;3.97;3.77;;;58.60;13.10;;;;;;5032527;28;20394;-79
2023/05/31 11:29:44;;;;;;;5.30;3.67;;;58.30;13.20;;;;;;5032387;28;20804;-78
2023/05/31 11:32:10;;;;;;;4.37;3.43;;;58.10;13.50;;;;;;5032687;28;20441;-79
2023/05/31 11:34:50;;;;;;;3.40;3.20;;;58.20;13.80;;;;;;5018598;28;20426;-79
2023/05/31 11:37:16;;;;;;;3.80;3.50;;;58.50;13.50;;;;;;5011814;28;20903;-78
2023/05/31 11:39:45;;;;;;;3.30;3.20;;;58.60;13.70;;;;;;5025516;28;20420;-79
2023/05/31 11:42:11;;;;;;;3.33;3.13;;;58.70;13.40;;;;;;5032223;28;20269;-77
2023/05/31 11:44:45;;;;;;;4.03;3.80;;;58.80;13.60;;;;;;5032194;28;20441;-77
2023/05/31 11:47:18;;;;;;;4.20;3.90;;;58.90;13.60;;;;;;5031962;28;20205;-76
2023/05/31 11:49:44;;;;;;;3.73;3.53;;;58.90;13.30;;;;;;5031977;28;20907;-77
2023/05/31 11:52:15;;;;;;;4.13;3.83;;;58.90;13.50;;;;;;5032123;28;20413;-77
2023/05/31 11:54:43;;;;;;;4.00;3.70;;;59.10;13.60;;;;;;5031921;28;20413;-77
2023/05/31 11:57:08;;;;;;;3.87;3.50;;;59.50;13.70;;;;;;5031574;28;20406;-77
2023/05/31 11:59:35;;;;;;;3.90;3.60;;;59.40;13.20;;;;;;5031676;28;20430;-77
2023/05/31 12:02:03;;;;;;;3.37;3.17;;;59.20;13.30;;;;;;5031782;28;20209;-76
2023/05/31 12:04:30;;;;;;;3.47;3.20;;;58.80;13.20;;;;;;5031530;28;20410;-76
2023/05/31 12:06:56;;;;;;;3.50;3.30;;;58.50;13.70;;;;;;5031497;28;20481;-76
2023/05/31 12:09:27;;;;;;;3.73;3.53;;;58.30;13.50;;;;;;5031576;28;20516;-76
2023/05/31 12:11:55;;;;;;;3.70;3.50;;;58.10;13.50;;;;;;5031901;28;20199;-76
2023/05/31 12:14:22;;;;;;;3.30;3.10;;;58.00;13.60;;;;;;5031442;28;20487;-76
2023/05/31 12:16:51;;;;;;;3.77;3.53;;;57.80;13.90;;;;;;5031529;28;20394;-76
2023/05/31 12:19:17;;;;;;;6.47;3.97;;;57.70;14.00;;;;;;5031326;28;20507;-76
2023/05/31 12:21:43;;;;;;;3.43;3.13;;;57.60;14.10;;;;;;5031516;28;20857;-75
2023/05/31 12:24:14;;;;;;;3.27;3.07;;;57.60;13.80;;;;;;5031578;28;20406;-75
2023/05/31 12:26:39;;;;;;;3.70;3.50;;;57.30;13.60;;;;;;5031760;28;20456;-76
2023/05/31 12:29:05;;;;;;;3.50;3.30;;;56.90;13.90;;;;;;5031209;28;20828;-75
2023/05/31 12:31:36;;;;;;;3.30;3.10;;;56.60;14.00;;;;;;5032968;28;20201;-76
2023/05/31 12:34:04;;;;;;;3.87;3.10;;;56.30;14.50;;;;;;5035367;28;20775;-76
2023/05/31 12:36:50;;;;;;;3.70;3.40;;;55.90;14.40;;;;;;5035281;28;20453;-76
2023/05/31 12:39:20;;;;;;;3.63;3.33;;;55.60;14.60;;;;;;5034632;28;20473;-76
2023/05/31 12:41:48;;;;;;;4.27;3.33;;;55.20;15.00;;;;;;5035324;28;20544;-76
2023/05/31 12:44:16;;;;;;;3.47;3.27;;;55.00;15.10;;;;;;5035167;28;20418;-76
2023/05/31 12:46:46;;;;;;;3.77;3.47;;;55.00;15.40;;;;;;5035231;28;20409;-75
2023/05/31 12:49:24;;;;;;;5.73;3.20;;;54.80;15.00;;;;;;5034829;28;20472;-76